Dawson, Canada
Current Conditions -  °F | °C
As of 10:53 PM on Wednesday 26 Nov 2014 (Local Time) from PAEG Reporting Station
Overcast Overcast  
Wind Chill: -1°   Ceiling: 700
Heat Index: -1°   Visibility: 10mi
Dew Point: -5°   Wind: 0mph
Humidity: 83%   Direction: NA
Pressure: 30.55"   Gusts: NA
Location:  64.05°N, 139.13°W
Report Text: PAEG 270653Z AUTO 00000KT 10SM OVC007 M18/M21 A3055 RMK AO2 SLP369 T11831206 TSNO
Loading
Personal Weather Stations






























Interactive Weather Map New forecast layout! Learn more

10-Day Weather Forecast

Advertisements
Track Severe Weather on mobile